sensor_id;sensor_type;location;lat;lon;timestamp;pressure;altitude;pressure_sealevel;temperature;humidity
77321;BME280;66382;52.252;8.780;2024-03-25T00:00:48;99409.53;;;6.91;70.17
77321;BME280;66382;52.252;8.780;2024-03-25T00:03:14;99420.56;;;6.87;70.23
77321;BME280;66382;52.252;8.780;2024-03-25T00:05:39;99420.09;;;6.84;69.80
77321;BME280;66382;52.252;8.780;2024-03-25T00:08:05;99426.81;;;6.80;70.44
77321;BME280;66382;52.252;8.780;2024-03-25T00:10:32;99422.53;;;6.79;70.70
77321;BME280;66382;52.252;8.780;2024-03-25T00:12:58;99428.75;;;6.86;69.77
77321;BME280;66382;52.252;8.780;2024-03-25T00:15:23;99427.91;;;6.85;70.56
77321;BME280;66382;52.252;8.780;2024-03-25T00:17:49;99434.25;;;6.84;70.48
77321;BME280;66382;52.252;8.780;2024-03-25T00:20:14;99434.00;;;6.79;70.14
77321;BME280;66382;52.252;8.780;2024-03-25T00:22:39;99429.47;;;6.80;69.70
77321;BME280;66382;52.252;8.780;2024-03-25T00:25:06;99449.47;;;6.91;70.38
77321;BME280;66382;52.252;8.780;2024-03-25T00:27:32;99452.56;;;6.94;70.13
77321;BME280;66382;52.252;8.780;2024-03-25T00:29:58;99456.91;;;6.95;69.96
77321;BME280;66382;52.252;8.780;2024-03-25T00:32:23;99453.41;;;6.95;70.21
77321;BME280;66382;52.252;8.780;2024-03-25T00:34:49;99454.25;;;6.95;70.66
77321;BME280;66382;52.252;8.780;2024-03-25T00:37:14;99456.69;;;6.97;70.71
77321;BME280;66382;52.252;8.780;2024-03-25T00:39:40;99470.22;;;6.95;70.45
77321;BME280;66382;52.252;8.780;2024-03-25T00:42:06;99463.69;;;6.98;70.26
77321;BME280;66382;52.252;8.780;2024-03-25T00:44:32;99463.31;;;7.01;71.00
77321;BME280;66382;52.252;8.780;2024-03-25T00:46:58;99465.97;;;7.01;69.77
77321;BME280;66382;52.252;8.780;2024-03-25T00:49:24;99472.34;;;7.00;71.09
77321;BME280;66382;52.252;8.780;2024-03-25T00:51:49;99472.94;;;7.02;70.79
77321;BME280;66382;52.252;8.780;2024-03-25T00:54:14;99470.66;;;6.99;70.30
77321;BME280;66382;52.252;8.780;2024-03-25T00:56:40;99467.56;;;6.95;70.89
77321;BME280;66382;52.252;8.780;2024-03-25T00:59:05;99471.69;;;6.98;70.26
77321;BME280;66382;52.252;8.780;2024-03-25T01:01:32;99470.84;;;6.97;70.32
77321;BME280;66382;52.252;8.780;2024-03-25T01:03:58;99468.00;;;6.99;71.31
77321;BME280;66382;52.252;8.780;2024-03-25T01:06:23;99480.13;;;7.01;70.72
77321;BME280;66382;52.252;8.780;2024-03-25T01:08:49;99471.31;;;7.01;70.23
77321;BME280;66382;52.252;8.780;2024-03-25T01:11:14;99463.50;;;6.99;71.28
77321;BME280;66382;52.252;8.780;2024-03-25T01:13:40;99471.88;;;6.96;71.04
77321;BME280;66382;52.252;8.780;2024-03-25T01:16:05;99457.53;;;6.97;70.56
77321;BME280;66382;52.252;8.780;2024-03-25T01:18:32;99469.03;;;6.98;70.55
77321;BME280;66382;52.252;8.780;2024-03-25T01:20:58;99475.19;;;6.98;70.58
77321;BME280;66382;52.252;8.780;2024-03-25T01:23:23;99472.34;;;7.00;70.92
77321;BME280;66382;52.252;8.780;2024-03-25T01:25:48;99470.47;;;7.00;71.07
77321;BME280;66382;52.252;8.780;2024-03-25T01:28:14;99471.47;;;6.99;71.06
77321;BME280;66382;52.252;8.780;2024-03-25T01:30:39;99470.59;;;6.92;70.30
77321;BME280;66382;52.252;8.780;2024-03-25T01:33:05;99473.00;;;6.87;71.17
77321;BME280;66382;52.252;8.780;2024-03-25T01:35:32;99473.22;;;6.85;70.65
77321;BME280;66382;52.252;8.780;2024-03-25T01:37:57;99473.84;;;6.87;70.53
77321;BME280;66382;52.252;8.780;2024-03-25T01:40:23;99473.47;;;6.91;71.34
77321;BME280;66382;52.252;8.780;2024-03-25T01:42:55;99481.88;;;6.94;70.97
77321;BME280;66382;52.252;8.780;2024-03-25T01:45:20;99481.72;;;6.96;70.92
77321;BME280;66382;52.252;8.780;2024-03-25T01:47:46;99469.03;;;6.98;71.23
77321;BME280;66382;52.252;8.780;2024-03-25T01:50:12;99481.16;;;7.00;70.47
77321;BME280;66382;52.252;8.780;2024-03-25T01:52:39;99482.59;;;7.03;71.33
77321;BME280;66382;52.252;8.780;2024-03-25T01:55:07;99479.94;;;7.03;70.76
77321;BME280;66382;52.252;8.780;2024-03-25T01:57:35;99480.13;;;7.01;70.73
77321;BME280;66382;52.252;8.780;2024-03-25T02:00:01;99479.03;;;6.96;70.80
77321;BME280;66382;52.252;8.780;2024-03-25T02:02:27;99482.72;;;6.95;71.26
77321;BME280;66382;52.252;8.780;2024-03-25T02:04:52;99490.09;;;6.93;71.12
77321;BME280;66382;52.252;8.780;2024-03-25T02:07:18;99488.41;;;6.92;70.38
77321;BME280;66382;52.252;8.780;2024-03-25T02:09:45;99492.13;;;6.91;70.66
77321;BME280;66382;52.252;8.780;2024-03-25T02:12:11;99491.09;;;6.92;70.40
77321;BME280;66382;52.252;8.780;2024-03-25T02:14:36;99492.13;;;6.91;70.91
77321;BME280;66382;52.252;8.780;2024-03-25T02:17:02;99482.47;;;6.89;70.66
77321;BME280;66382;52.252;8.780;2024-03-25T02:19:30;99493.97;;;6.90;71.11
77321;BME280;66382;52.252;8.780;2024-03-25T02:21:56;99493.31;;;6.88;71.27
77321;BME280;66382;52.252;8.780;2024-03-25T02:24:23;99491.28;;;6.90;70.59
77321;BME280;66382;52.252;8.780;2024-03-25T02:26:53;99495.41;;;6.93;71.21
77321;BME280;66382;52.252;8.780;2024-03-25T02:29:18;99496.03;;;6.95;70.57
77321;BME280;66382;52.252;8.780;2024-03-25T02:31:43;99492.38;;;6.96;70.49
77321;BME280;66382;52.252;8.780;2024-03-25T02:34:09;99500.09;;;6.91;70.38
77321;BME280;66382;52.252;8.780;2024-03-25T02:36:34;99501.50;;;6.86;70.75
77321;BME280;66382;52.252;8.780;2024-03-25T02:39:00;99501.88;;;6.83;70.55
77321;BME280;66382;52.252;8.780;2024-03-25T02:41:25;99498.94;;;6.78;70.66
77321;BME280;66382;52.252;8.780;2024-03-25T02:43:52;99503.63;;;6.76;70.90
77321;BME280;66382;52.252;8.780;2024-03-25T02:46:18;99511.63;;;6.76;71.20
77321;BME280;66382;52.252;8.780;2024-03-25T02:48:45;99511.63;;;6.76;70.81
77321;BME280;66382;52.252;8.780;2024-03-25T02:51:11;99509.34;;;6.73;70.96
77321;BME280;66382;52.252;8.780;2024-03-25T02:53:36;99509.72;;;6.70;71.04
77321;BME280;66382;52.252;8.780;2024-03-25T02:56:02;99512.19;;;6.72;70.64
77321;BME280;66382;52.252;8.780;2024-03-25T02:58:27;99520.19;;;6.72;70.94
77321;BME280;66382;52.252;8.780;2024-03-25T03:00:54;99526.31;;;6.72;70.84
77321;BME280;66382;52.252;8.780;2024-03-25T03:03:19;99526.31;;;6.72;71.09
77321;BME280;66382;52.252;8.780;2024-03-25T03:05:45;99526.31;;;6.72;71.02
77321;BME280;66382;52.252;8.780;2024-03-25T03:08:10;99531.66;;;6.72;70.71
77321;BME280;66382;52.252;8.780;2024-03-25T03:10:35;99532.28;;;6.74;70.47
77321;BME280;66382;52.252;8.780;2024-03-25T03:13:01;99536.00;;;6.73;70.61
77321;BME280;66382;52.252;8.780;2024-03-25T03:15:26;99530.66;;;6.73;70.48
77321;BME280;66382;52.252;8.780;2024-03-25T03:17:53;99533.97;;;6.75;70.77
77321;BME280;66382;52.252;8.780;2024-03-25T03:20:18;99534.41;;;6.79;71.28
77321;BME280;66382;52.252;8.780;2024-03-25T03:22:44;99536.88;;;6.80;70.47
77321;BME280;66382;52.252;8.780;2024-03-25T03:25:09;99530.53;;;6.81;71.17
77321;BME280;66382;52.252;8.780;2024-03-25T03:27:35;99538.53;;;6.81;70.38
77321;BME280;66382;52.252;8.780;2024-03-25T03:30:00;99546.53;;;6.81;71.16
77321;BME280;66382;52.252;8.780;2024-03-25T03:32:26;99535.69;;;6.83;70.38
77321;BME280;66382;52.252;8.780;2024-03-25T03:34:52;99540.00;;;6.84;70.21
77321;BME280;66382;52.252;8.780;2024-03-25T03:37:18;99546.53;;;6.81;71.18
77321;BME280;66382;52.252;8.780;2024-03-25T03:39:43;99546.91;;;6.78;70.41
77321;BME280;66382;52.252;8.780;2024-03-25T03:42:09;99539.09;;;6.77;70.97
77321;BME280;66382;52.252;8.780;2024-03-25T03:44:34;99545.88;;;6.79;69.89
77321;BME280;66382;52.252;8.780;2024-03-25T03:46:59;99549.75;;;6.77;70.43
77321;BME280;66382;52.252;8.780;2024-03-25T03:49:25;99546.91;;;6.78;70.40
77321;BME280;66382;52.252;8.780;2024-03-25T03:51:51;99546.91;;;6.78;70.95
77321;BME280;66382;52.252;8.780;2024-03-25T03:54:17;99554.06;;;6.78;70.84
77321;BME280;66382;52.252;8.780;2024-03-25T03:56:42;99552.63;;;6.75;70.49
77321;BME280;66382;52.252;8.780;2024-03-25T03:59:08;99559.56;;;6.76;70.88
77321;BME280;66382;52.252;8.780;2024-03-25T04:01:33;99560.59;;;6.75;69.98
77321;BME280;66382;52.252;8.780;2024-03-25T04:03:58;99563.28;;;6.75;71.21
77321;BME280;66382;52.252;8.780;2024-03-25T04:06:24;99567.75;;;6.75;70.99
77321;BME280;66382;52.252;8.780;2024-03-25T04:08:51;99562.63;;;6.73;70.76
77321;BME280;66382;52.252;8.780;2024-03-25T04:11:16;99565.09;;;6.75;70.98
77321;BME280;66382;52.252;8.780;2024-03-25T04:13:41;99556.28;;;6.74;71.02
77321;BME280;66382;52.252;8.780;2024-03-25T04:16:07;99556.28;;;6.74;70.96
77321;BME280;66382;52.252;8.780;2024-03-25T04:18:33;99561.97;;;6.71;70.21
77321;BME280;66382;52.252;8.780;2024-03-25T04:20:59;99556.00;;;6.69;69.99
77321;BME280;66382;52.252;8.780;2024-03-25T04:23:25;99563.19;;;6.68;70.06
77321;BME280;66382;52.252;8.780;2024-03-25T04:25:52;99561.50;;;6.67;70.49
77321;BME280;66382;52.252;8.780;2024-03-25T04:28:17;99563.19;;;6.68;70.98
77321;BME280;66382;52.252;8.780;2024-03-25T04:30:43;99553.72;;;6.66;70.63
77321;BME280;66382;52.252;8.780;2024-03-25T04:33:08;99558.66;;;6.69;70.81
77321;BME280;66382;52.252;8.780;2024-03-25T04:35:34;99559.69;;;6.68;70.09
77321;BME280;66382;52.252;8.780;2024-03-25T04:37:59;99565.19;;;6.66;69.83
77321;BME280;66382;52.252;8.780;2024-03-25T04:40:25;99566.66;;;6.69;70.17
77321;BME280;66382;52.252;8.780;2024-03-25T04:42:52;99567.03;;;6.66;70.29
77321;BME280;66382;52.252;8.780;2024-03-25T04:45:17;99576.31;;;6.70;70.26
77321;BME280;66382;52.252;8.780;2024-03-25T04:47:43;99577.13;;;6.71;70.65
77321;BME280;66382;52.252;8.780;2024-03-25T04:50:09;99584.66;;;6.67;70.57
77321;BME280;66382;52.252;8.780;2024-03-25T04:52:34;99579.88;;;6.62;70.92
77321;BME280;66382;52.252;8.780;2024-03-25T04:55:00;99597.63;;;6.70;70.34
77321;BME280;66382;52.252;8.780;2024-03-25T04:57:25;99587.97;;;6.69;70.92
77321;BME280;66382;52.252;8.780;2024-03-25T04:59:52;99601.75;;;6.73;70.27
77321;BME280;66382;52.252;8.780;2024-03-25T05:02:17;99598.63;;;6.69;70.75
77321;BME280;66382;52.252;8.780;2024-03-25T05:04:43;99603.31;;;6.67;71.10
77321;BME280;66382;52.252;8.780;2024-03-25T05:07:08;99600.28;;;6.70;71.15
77321;BME280;66382;52.252;8.780;2024-03-25T05:09:34;99599.66;;;6.68;70.93
77321;BME280;66382;52.252;8.780;2024-03-25T05:11:59;99603.03;;;6.62;71.17
77321;BME280;66382;52.252;8.780;2024-03-25T05:14:25;99613.78;;;6.68;70.39
77321;BME280;66382;52.252;8.780;2024-03-25T05:16:51;99605.78;;;6.68;70.56
77321;BME280;66382;52.252;8.780;2024-03-25T05:19:17;99614.78;;;6.67;71.16
77321;BME280;66382;52.252;8.780;2024-03-25T05:21:42;99600.38;;;6.62;70.79
77321;BME280;66382;52.252;8.780;2024-03-25T05:24:08;99609.75;;;6.58;70.07
77321;BME280;66382;52.252;8.780;2024-03-25T05:26:33;99616.56;;;6.60;70.64
77321;BME280;66382;52.252;8.780;2024-03-25T05:28:58;99620.75;;;6.55;71.02
77321;BME280;66382;52.252;8.780;2024-03-25T05:31:24;99625.44;;;6.53;71.07
77321;BME280;66382;52.252;8.780;2024-03-25T05:33:51;99642.72;;;6.57;71.15
77321;BME280;66382;52.252;8.780;2024-03-25T05:36:16;99633.72;;;6.58;70.94
77321;BME280;66382;52.252;8.780;2024-03-25T05:38:42;99640.03;;;6.57;70.26
77321;BME280;66382;52.252;8.780;2024-03-25T05:41:07;99634.56;;;6.58;70.55
77321;BME280;66382;52.252;8.780;2024-03-25T05:43:33;99636.84;;;6.61;70.95
77321;BME280;66382;52.252;8.780;2024-03-25T05:45:58;99627.22;;;6.60;70.93
77321;BME280;66382;52.252;8.780;2024-03-25T05:48:25;99630.69;;;6.61;70.37
77321;BME280;66382;52.252;8.780;2024-03-25T05:50:59;99633.91;;;6.56;70.02
77321;BME280;66382;52.252;8.780;2024-03-25T05:53:25;99633.91;;;6.56;70.44
77321;BME280;66382;52.252;8.780;2024-03-25T05:55:50;99647.66;;;6.60;70.93
77321;BME280;66382;52.252;8.780;2024-03-25T05:58:16;99639.31;;;6.63;70.36
77321;BME280;66382;52.252;8.780;2024-03-25T06:00:41;99647.31;;;6.63;70.55
77321;BME280;66382;52.252;8.780;2024-03-25T06:03:07;99634.00;;;6.63;70.88
77321;BME280;66382;52.252;8.780;2024-03-25T06:05:32;99645.19;;;6.73;71.11
77321;BME280;66382;52.252;8.780;2024-03-25T06:07:59;99655.66;;;6.75;70.81
77321;BME280;66382;52.252;8.780;2024-03-25T06:10:24;99651.50;;;6.72;70.76
77321;BME280;66382;52.252;8.780;2024-03-25T06:12:50;99657.97;;;6.78;71.27
77321;BME280;66382;52.252;8.780;2024-03-25T06:15:15;99660.63;;;6.78;70.69
77321;BME280;66382;52.252;8.780;2024-03-25T06:17:41;99648.94;;;6.79;70.55
77321;BME280;66382;52.252;8.780;2024-03-25T06:20:07;99665.22;;;6.84;71.07
77321;BME280;66382;52.252;8.780;2024-03-25T06:22:32;99664.81;;;6.87;71.01
77321;BME280;66382;52.252;8.780;2024-03-25T06:24:59;99661.16;;;6.88;70.28
77321;BME280;66382;52.252;8.780;2024-03-25T06:27:25;99665.94;;;6.93;70.96
77321;BME280;66382;52.252;8.780;2024-03-25T06:29:50;99663.91;;;6.95;71.10
77321;BME280;66382;52.252;8.780;2024-03-25T06:32:15;99662.09;;;6.95;70.78
77321;BME280;66382;52.252;8.780;2024-03-25T06:34:41;99673.66;;;7.02;70.94
77321;BME280;66382;52.252;8.780;2024-03-25T06:37:06;99670.41;;;7.07;70.88
77321;BME280;66382;52.252;8.780;2024-03-25T06:39:32;99662.41;;;7.07;70.98
77321;BME280;66382;52.252;8.780;2024-03-25T06:41:59;99672.16;;;7.15;70.50
77321;BME280;66382;52.252;8.780;2024-03-25T06:44:24;99661.41;;;7.08;71.20
77321;BME280;66382;52.252;8.780;2024-03-25T06:46:49;99673.53;;;7.25;71.75
77321;BME280;66382;52.252;8.780;2024-03-25T06:49:15;99673.41;;;7.33;70.93
77321;BME280;66382;52.252;8.780;2024-03-25T06:51:40;99667.50;;;7.38;71.04
77321;BME280;66382;52.252;8.780;2024-03-25T06:54:06;99677.63;;;7.43;70.32
77321;BME280;66382;52.252;8.780;2024-03-25T06:56:31;99684.03;;;7.48;71.41
77321;BME280;66382;52.252;8.780;2024-03-25T06:58:58;99695.16;;;7.52;71.08
77321;BME280;66382;52.252;8.780;2024-03-25T07:01:24;99691.47;;;7.53;70.97
77321;BME280;66382;52.252;8.780;2024-03-25T07:03:49;99682.81;;;7.51;71.10
77321;BME280;66382;52.252;8.780;2024-03-25T07:06:15;99694.94;;;7.53;70.73
77321;BME280;66382;52.252;8.780;2024-03-25T07:08:40;99707.03;;;7.49;70.79
77321;BME280;66382;52.252;8.780;2024-03-25T07:11:06;99709.50;;;7.51;70.32
77321;BME280;66382;52.252;8.780;2024-03-25T07:13:31;99707.84;;;7.50;69.72
77321;BME280;66382;52.252;8.780;2024-03-25T07:15:58;99711.16;;;7.52;70.23
77321;BME280;66382;52.252;8.780;2024-03-25T07:18:23;99710.78;;;7.55;70.63
77321;BME280;66382;52.252;8.780;2024-03-25T07:20:49;99709.97;;;7.54;70.23
77321;BME280;66382;52.252;8.780;2024-03-25T07:23:14;99714.25;;;7.56;70.83
77321;BME280;66382;52.252;8.780;2024-03-25T07:25:40;99711.22;;;7.59;70.88
77321;BME280;66382;52.252;8.780;2024-03-25T07:28:05;99711.22;;;7.59;70.92
77321;BME280;66382;52.252;8.780;2024-03-25T07:30:31;99718.66;;;7.63;70.24
77321;BME280;66382;52.252;8.780;2024-03-25T07:32:58;99711.03;;;7.60;70.01
77321;BME280;66382;52.252;8.780;2024-03-25T07:35:24;99713.13;;;7.65;70.48
77321;BME280;66382;52.252;8.780;2024-03-25T07:37:50;99707.97;;;7.63;70.66
77321;BME280;66382;52.252;8.780;2024-03-25T07:40:16;99713.41;;;7.70;70.87
77321;BME280;66382;52.252;8.780;2024-03-25T07:42:41;99700.13;;;7.77;70.83
77321;BME280;66382;52.252;8.780;2024-03-25T07:45:07;99718.53;;;7.93;70.67
77321;BME280;66382;52.252;8.780;2024-03-25T07:47:33;99720.91;;;8.03;70.60
77321;BME280;66382;52.252;8.780;2024-03-25T07:50:00;99712.16;;;8.09;71.52
77321;BME280;66382;52.252;8.780;2024-03-25T07:52:25;99716.31;;;8.18;70.52
77321;BME280;66382;52.252;8.780;2024-03-25T07:54:51;99721.72;;;8.25;70.93
77321;BME280;66382;52.252;8.780;2024-03-25T07:57:16;99724.97;;;8.20;69.78
77321;BME280;66382;52.252;8.780;2024-03-25T07:59:41;99718.63;;;8.21;71.07
77321;BME280;66382;52.252;8.780;2024-03-25T08:02:07;99718.00;;;8.26;70.64
77321;BME280;66382;52.252;8.780;2024-03-25T08:04:32;99726.31;;;8.31;70.76
77321;BME280;66382;52.252;8.780;2024-03-25T08:06:59;99721.81;;;8.38;70.20
77321;BME280;66382;52.252;8.780;2024-03-25T08:09:25;99705.25;;;8.43;70.42
77321;BME280;66382;52.252;8.780;2024-03-25T08:11:50;99728.81;;;8.60;70.12
77321;BME280;66382;52.252;8.780;2024-03-25T08:14:15;99731.34;;;8.69;70.51
77321;BME280;66382;52.252;8.780;2024-03-25T08:16:41;99727.88;;;8.75;70.32
77321;BME280;66382;52.252;8.780;2024-03-25T08:19:06;99727.06;;;8.74;69.76
77321;BME280;66382;52.252;8.780;2024-03-25T08:21:32;99727.06;;;8.74;69.82
77321;BME280;66382;52.252;8.780;2024-03-25T08:23:59;99737.16;;;8.79;69.53
77321;BME280;66382;52.252;8.780;2024-03-25T08:26:24;99733.03;;;8.76;68.75
77321;BME280;66382;52.252;8.780;2024-03-25T08:28:50;99741.22;;;8.75;69.20
77321;BME280;66382;52.252;8.780;2024-03-25T08:31:15;99735.66;;;8.70;69.47
77321;BME280;66382;52.252;8.780;2024-03-25T08:33:41;99739.41;;;8.75;69.00
77321;BME280;66382;52.252;8.780;2024-03-25T08:36:06;99736.75;;;8.75;69.59
77321;BME280;66382;52.252;8.780;2024-03-25T08:38:32;99741.91;;;8.83;69.22
77321;BME280;66382;52.252;8.780;2024-03-25T08:40:59;99739.09;;;8.92;69.68
77321;BME280;66382;52.252;8.780;2024-03-25T08:43:24;99744.09;;;9.01;69.72
77321;BME280;66382;52.252;8.780;2024-03-25T08:45:49;99733.44;;;9.08;69.20
77321;BME280;66382;52.252;8.780;2024-03-25T08:48:15;99729.31;;;9.06;69.29
77321;BME280;66382;52.252;8.780;2024-03-25T08:50:40;99735.31;;;9.14;69.16
77321;BME280;66382;52.252;8.780;2024-03-25T08:53:06;99735.69;;;9.11;69.03
77321;BME280;66382;52.252;8.780;2024-03-25T08:55:32;99742.47;;;9.07;68.43
77321;BME280;66382;52.252;8.780;2024-03-25T08:57:58;99732.97;;;9.04;68.31
77321;BME280;66382;52.252;8.780;2024-03-25T09:00:24;99733.38;;;9.01;68.30
77321;BME280;66382;52.252;8.780;2024-03-25T09:02:50;99739.38;;;9.03;68.67
77321;BME280;66382;52.252;8.780;2024-03-25T09:05:15;99727.03;;;9.09;68.50
77321;BME280;66382;52.252;8.780;2024-03-25T09:07:41;99743.59;;;9.26;68.69
77321;BME280;66382;52.252;8.780;2024-03-25T09:10:06;99741.38;;;9.36;68.63
77321;BME280;66382;52.252;8.780;2024-03-25T09:12:32;99742.41;;;9.35;68.35
77321;BME280;66382;52.252;8.780;2024-03-25T09:14:59;99739.28;;;9.25;67.99
77321;BME280;66382;52.252;8.780;2024-03-25T09:17:24;99738.66;;;9.30;67.81
77321;BME280;66382;52.252;8.780;2024-03-25T09:19:50;99747.91;;;9.27;67.52
77321;BME280;66382;52.252;8.780;2024-03-25T09:22:15;99739.69;;;9.29;67.91
77321;BME280;66382;52.252;8.780;2024-03-25T09:24:40;99736.25;;;9.35;67.56
77321;BME280;66382;52.252;8.780;2024-03-25T09:27:06;99730.31;;;9.46;67.17
77321;BME280;66382;52.252;8.780;2024-03-25T09:29:31;99740.38;;;9.44;67.18
77321;BME280;66382;52.252;8.780;2024-03-25T09:31:58;99741.78;;;9.33;66.85
77321;BME280;66382;52.252;8.780;2024-03-25T09:34:24;99738.47;;;9.31;66.91
77321;BME280;66382;52.252;8.780;2024-03-25T09:36:49;99738.47;;;9.31;67.75
77321;BME280;66382;52.252;8.780;2024-03-25T09:39:14;99737.69;;;9.37;66.46
77321;BME280;66382;52.252;8.780;2024-03-25T09:41:42;99744.91;;;9.43;67.17
77321;BME280;66382;52.252;8.780;2024-03-25T09:44:08;99741.47;;;9.63;67.72
77321;BME280;66382;52.252;8.780;2024-03-25T09:46:34;99745.84;;;9.77;67.13
77321;BME280;66382;52.252;8.780;2024-03-25T09:49:01;99754.50;;;9.79;67.23
77321;BME280;66382;52.252;8.780;2024-03-25T09:51:26;99752.47;;;9.88;67.62
77321;BME280;66382;52.252;8.780;2024-03-25T09:53:52;99756.81;;;10.02;66.99
77321;BME280;66382;52.252;8.780;2024-03-25T09:56:17;99767.13;;;10.05;65.68
77321;BME280;66382;52.252;8.780;2024-03-25T09:58:44;99760.94;;;10.05;66.80
77321;BME280;66382;52.252;8.780;2024-03-25T10:01:09;99760.13;;;10.04;65.96
77321;BME280;66382;52.252;8.780;2024-03-25T10:03:35;99755.56;;;9.98;65.65
77321;BME280;66382;52.252;8.780;2024-03-25T10:06:02;99760.50;;;9.88;66.30
77321;BME280;66382;52.252;8.780;2024-03-25T10:08:27;99761.31;;;9.88;66.33
77321;BME280;66382;52.252;8.780;2024-03-25T10:10:54;99769.34;;;9.88;66.72
77321;BME280;66382;52.252;8.780;2024-03-25T10:13:19;99758.84;;;9.94;67.52
77321;BME280;66382;52.252;8.780;2024-03-25T10:15:47;99754.34;;;9.94;66.88
77321;BME280;66382;52.252;8.780;2024-03-25T10:18:12;99755.34;;;9.93;66.26
77321;BME280;66382;52.252;8.780;2024-03-25T10:20:38;99753.31;;;9.95;66.93
77321;BME280;66382;52.252;8.780;2024-03-25T10:23:05;99754.34;;;10.01;66.45
77321;BME280;66382;52.252;8.780;2024-03-25T10:25:31;99741.56;;;10.03;66.52
77321;BME280;66382;52.252;8.780;2024-03-25T10:27:57;99745.50;;;10.07;66.28
77321;BME280;66382;52.252;8.780;2024-03-25T10:30:23;99746.13;;;10.09;66.53
77321;BME280;66382;52.252;8.780;2024-03-25T10:32:59;99743.00;;;10.05;65.95
77321;BME280;66382;52.252;8.780;2024-03-25T10:35:26;99750.44;;;10.03;65.80
77321;BME280;66382;52.252;8.780;2024-03-25T10:37:54;99747.75;;;9.97;65.37
77321;BME280;66382;52.252;8.780;2024-03-25T10:40:23;99750.44;;;9.97;65.49
77321;BME280;66382;52.252;8.780;2024-03-25T10:42:51;99751.25;;;9.97;65.98
77321;BME280;66382;52.252;8.780;2024-03-25T10:45:17;99755.38;;;10.00;66.36
77321;BME280;66382;52.252;8.780;2024-03-25T10:47:42;99751.28;;;10.17;66.77
77321;BME280;66382;52.252;8.780;2024-03-25T10:50:09;99756.06;;;10.42;66.67
77321;BME280;66382;52.252;8.780;2024-03-25T10:52:37;99742.25;;;10.45;66.05
77321;BME280;66382;52.252;8.780;2024-03-25T10:55:04;99747.41;;;10.53;65.96
77321;BME280;66382;52.252;8.780;2024-03-25T10:57:33;99747.00;;;10.76;66.78
77321;BME280;66382;52.252;8.780;2024-03-25T11:00:01;99738.69;;;10.97;66.70
77321;BME280;66382;52.252;8.780;2024-03-25T11:02:27;99739.66;;;11.23;66.17
77321;BME280;66382;52.252;8.780;2024-03-25T11:04:53;99746.03;;;11.35;65.42
77321;BME280;66382;52.252;8.780;2024-03-25T11:07:29;99737.13;;;11.35;66.21
77321;BME280;66382;52.252;8.780;2024-03-25T11:10:03;99734.84;;;11.38;64.83
77321;BME280;66382;52.252;8.780;2024-03-25T11:12:34;99731.75;;;11.35;66.00
77321;BME280;66382;52.252;8.780;2024-03-25T11:15:01;99724.94;;;11.39;64.45
77321;BME280;66382;52.252;8.780;2024-03-25T11:17:27;99724.03;;;11.52;65.16
77321;BME280;66382;52.252;8.780;2024-03-25T11:19:52;99722.38;;;11.57;64.00
77321;BME280;66382;52.252;8.780;2024-03-25T11:22:24;99706.28;;;11.57;65.09
77321;BME280;66382;52.252;8.780;2024-03-25T11:24:50;99706.88;;;11.59;63.89
77321;BME280;66382;52.252;8.780;2024-03-25T11:27:21;99705.66;;;11.55;64.35
77321;BME280;66382;52.252;8.780;2024-03-25T11:29:48;99709.59;;;11.53;65.12
77321;BME280;66382;52.252;8.780;2024-03-25T11:32:14;99700.50;;;11.54;63.42
77321;BME280;66382;52.252;8.780;2024-03-25T11:34:49;99693.09;;;11.49;63.56
77321;BME280;66382;52.252;8.780;2024-03-25T11:37:15;99694.34;;;11.47;63.10
77321;BME280;66382;52.252;8.780;2024-03-25T11:39:40;99689.41;;;11.44;63.40
77321;BME280;66382;52.252;8.780;2024-03-25T11:42:08;99694.97;;;11.42;64.00
77321;BME280;66382;52.252;8.780;2024-03-25T11:44:36;99688.63;;;11.36;62.71
77321;BME280;66382;52.252;8.780;2024-03-25T11:47:03;99696.09;;;11.28;63.05
77321;BME280;66382;52.252;8.780;2024-03-25T11:49:29;99694.94;;;11.10;63.46
77321;BME280;66382;52.252;8.780;2024-03-25T11:51:54;99693.31;;;10.96;64.32
77321;BME280;66382;52.252;8.780;2024-03-25T11:54:19;99686.53;;;10.80;62.87
77321;BME280;66382;52.252;8.780;2024-03-25T11:56:45;99687.59;;;10.72;63.95
77321;BME280;66382;52.252;8.780;2024-03-25T11:59:11;99679.97;;;10.63;63.93
77321;BME280;66382;52.252;8.780;2024-03-25T12:01:36;99679.97;;;10.69;63.47
77321;BME280;66382;52.252;8.780;2024-03-25T12:04:10;99684.72;;;10.67;64.95
77321;BME280;66382;52.252;8.780;2024-03-25T12:06:36;99681.22;;;10.60;63.15
77321;BME280;66382;52.252;8.780;2024-03-25T12:09:01;99681.44;;;10.52;63.91
77321;BME280;66382;52.252;8.780;2024-03-25T12:11:27;99674.66;;;10.49;63.65
77321;BME280;66382;52.252;8.780;2024-03-25T12:13:53;99667.63;;;10.55;64.59
77321;BME280;66382;52.252;8.780;2024-03-25T12:16:19;99675.66;;;10.62;63.21
77321;BME280;66382;52.252;8.780;2024-03-25T12:18:44;99667.41;;;10.63;64.15
77321;BME280;66382;52.252;8.780;2024-03-25T12:21:11;99657.72;;;10.62;63.47
77321;BME280;66382;52.252;8.780;2024-03-25T12:23:37;99659.56;;;10.55;62.64
77321;BME280;66382;52.252;8.780;2024-03-25T12:26:03;99650.28;;;10.58;63.58
77321;BME280;66382;52.252;8.780;2024-03-25T12:28:31;99654.22;;;10.68;64.48
77321;BME280;66382;52.252;8.780;2024-03-25T12:30:56;99650.88;;;10.80;63.82
77321;BME280;66382;52.252;8.780;2024-03-25T12:33:22;99647.56;;;10.84;63.88
77321;BME280;66382;52.252;8.780;2024-03-25T12:35:48;99646.91;;;10.89;61.81
77321;BME280;66382;52.252;8.780;2024-03-25T12:38:25;99639.69;;;10.89;64.02
77321;BME280;66382;52.252;8.780;2024-03-25T12:40:51;99632.28;;;10.91;63.44
77321;BME280;66382;52.252;8.780;2024-03-25T12:43:17;99639.88;;;10.94;63.18
77321;BME280;66382;52.252;8.780;2024-03-25T12:45:42;99630.59;;;10.97;62.67
77321;BME280;66382;52.252;8.780;2024-03-25T12:48:08;99628.94;;;10.96;62.88
77321;BME280;66382;52.252;8.780;2024-03-25T12:50:33;99628.78;;;10.91;61.70
77321;BME280;66382;52.252;8.780;2024-03-25T12:52:59;99620.50;;;10.92;62.40
77321;BME280;66382;52.252;8.780;2024-03-25T12:55:26;99620.50;;;10.92;60.78
77321;BME280;66382;52.252;8.780;2024-03-25T12:57:51;99620.94;;;10.89;62.19
77321;BME280;66382;52.252;8.780;2024-03-25T13:00:17;99613.28;;;10.93;62.19